sensor_id;sensor_type;location;lat;lon;timestamp;P1;durP1;ratioP1;P2;durP2;ratioP2
45863;SDS011;31579;52.354;16.974;2023-01-29T00:02:49;23.50;;;10.20;;
45863;SDS011;31579;52.354;16.974;2023-01-29T00:07:51;23.50;;;10.20;;
45863;SDS011;31579;52.354;16.974;2023-01-29T00:14:53;19.20;;;9.20;;
45863;SDS011;31579;52.354;16.974;2023-01-29T00:19:53;19.20;;;9.20;;
45863;SDS011;31579;52.354;16.974;2023-01-29T00:24:53;22.30;;;9.60;;
45863;SDS011;31579;52.354;16.974;2023-01-29T00:29:53;22.30;;;9.60;;
45863;SDS011;31579;52.354;16.974;2023-01-29T00:34:53;19.90;;;9.00;;
45863;SDS011;31579;52.354;16.974;2023-01-29T00:39:53;19.90;;;9.00;;
45863;SDS011;31579;52.354;16.974;2023-01-29T00:44:53;20.10;;;8.60;;
45863;SDS011;31579;52.354;16.974;2023-01-29T00:49:53;20.80;;;8.90;;
45863;SDS011;31579;52.354;16.974;2023-01-29T00:54:56;20.80;;;8.90;;
45863;SDS011;31579;52.354;16.974;2023-01-29T00:59:53;21.10;;;8.60;;
45863;SDS011;31579;52.354;16.974;2023-01-29T01:04:53;21.10;;;8.60;;
45863;SDS011;31579;52.354;16.974;2023-01-29T01:09:56;19.10;;;8.00;;
45863;SDS011;31579;52.354;16.974;2023-01-29T01:14:53;19.10;;;8.00;;
45863;SDS011;31579;52.354;16.974;2023-01-29T01:19:53;19.10;;;7.90;;
45863;SDS011;31579;52.354;16.974;2023-01-29T01:24:53;19.10;;;7.90;;
45863;SDS011;31579;52.354;16.974;2023-01-29T01:29:57;22.10;;;8.60;;
45863;SDS011;31579;52.354;16.974;2023-01-29T01:33:05;22.10;;;8.60;;
45863;SDS011;31579;52.354;16.974;2023-01-29T01:38:04;22.10;;;8.60;;
45863;SDS011;31579;52.354;16.974;2023-01-29T01:43:04;17.70;;;7.80;;
45863;SDS011;31579;52.354;16.974;2023-01-29T01:48:06;17.70;;;7.80;;
45863;SDS011;31579;52.354;16.974;2023-01-29T01:53:14;17.40;;;7.40;;
45863;SDS011;31579;52.354;16.974;2023-01-29T01:58:09;17.40;;;7.40;;
45863;SDS011;31579;52.354;16.974;2023-01-29T02:03:04;15.90;;;6.90;;
45863;SDS011;31579;52.354;16.974;2023-01-29T02:08:04;15.90;;;6.90;;
45863;SDS011;31579;52.354;16.974;2023-01-29T02:17:03;19.80;;;8.20;;
45863;SDS011;31579;52.354;16.974;2023-01-29T02:27:06;19.70;;;8.80;;
45863;SDS011;31579;52.354;16.974;2023-01-29T02:37:08;22.10;;;8.90;;
45863;SDS011;31579;52.354;16.974;2023-01-29T02:59:22;18.50;;;8.60;;
45863;SDS011;31579;52.354;16.974;2023-01-29T03:04:26;21.30;;;9.00;;
45863;SDS011;31579;52.354;16.974;2023-01-29T03:09:24;21.30;;;9.00;;
45863;SDS011;31579;52.354;16.974;2023-01-29T03:15:38;21.70;;;9.60;;
45863;SDS011;31579;52.354;16.974;2023-01-29T03:20:37;18.70;;;8.70;;
45863;SDS011;31579;52.354;16.974;2023-01-29T03:25:35;18.70;;;8.70;;
45863;SDS011;31579;52.354;16.974;2023-01-29T03:30:37;19.40;;;9.50;;
45863;SDS011;31579;52.354;16.974;2023-01-29T03:35:36;19.40;;;9.50;;
45863;SDS011;31579;52.354;16.974;2023-01-29T03:43:09;18.10;;;8.60;;
45863;SDS011;31579;52.354;16.974;2023-01-29T04:03:08;21.40;;;8.10;;
45863;SDS011;31579;52.354;16.974;2023-01-29T04:08:05;21.40;;;8.10;;
45863;SDS011;31579;52.354;16.974;2023-01-29T04:18:03;18.30;;;7.70;;
45863;SDS011;31579;52.354;16.974;2023-01-29T04:23:05;17.40;;;8.40;;
45863;SDS011;31579;52.354;16.974;2023-01-29T04:28:04;17.40;;;8.40;;
45863;SDS011;31579;52.354;16.974;2023-01-29T04:51:11;16.40;;;7.20;;
45863;SDS011;31579;52.354;16.974;2023-01-29T05:00:48;18.50;;;7.50;;
45863;SDS011;31579;52.354;16.974;2023-01-29T05:05:48;18.50;;;7.50;;
45863;SDS011;31579;52.354;16.974;2023-01-29T05:10:48;16.30;;;7.20;;
45863;SDS011;31579;52.354;16.974;2023-01-29T05:21:06;14.70;;;7.00;;
45863;SDS011;31579;52.354;16.974;2023-01-29T05:26:05;14.70;;;7.00;;
45863;SDS011;31579;52.354;16.974;2023-01-29T05:31:06;19.40;;;8.40;;
45863;SDS011;31579;52.354;16.974;2023-01-29T05:36:07;19.40;;;8.40;;
45863;SDS011;31579;52.354;16.974;2023-01-29T05:41:05;17.00;;;7.60;;
45863;SDS011;31579;52.354;16.974;2023-01-29T05:46:05;17.00;;;7.60;;
45863;SDS011;31579;52.354;16.974;2023-01-29T05:51:05;19.90;;;7.50;;
45863;SDS011;31579;52.354;16.974;2023-01-29T05:56:06;19.90;;;7.50;;
45863;SDS011;31579;52.354;16.974;2023-01-29T06:01:10;17.90;;;7.50;;
45863;SDS011;31579;52.354;16.974;2023-01-29T06:06:06;17.90;;;7.50;;
45863;SDS011;31579;52.354;16.974;2023-01-29T06:11:06;15.80;;;8.00;;
45863;SDS011;31579;52.354;16.974;2023-01-29T06:16:09;15.80;;;8.00;;
45863;SDS011;31579;52.354;16.974;2023-01-29T06:21:07;17.50;;;8.80;;
45863;SDS011;31579;52.354;16.974;2023-01-29T06:26:07;17.50;;;8.80;;
45863;SDS011;31579;52.354;16.974;2023-01-29T06:31:06;17.20;;;8.70;;
45863;SDS011;31579;52.354;16.974;2023-01-29T06:33:04;17.20;;;8.70;;
45863;SDS011;31579;52.354;16.974;2023-01-29T06:38:02;17.20;;;8.70;;
45863;SDS011;31579;52.354;16.974;2023-01-29T06:43:02;23.40;;;9.90;;
45863;SDS011;31579;52.354;16.974;2023-01-29T06:48:02;23.40;;;9.90;;
45863;SDS011;31579;52.354;16.974;2023-01-29T06:53:02;23.10;;;10.40;;
45863;SDS011;31579;52.354;16.974;2023-01-29T06:58:04;23.10;;;10.40;;
45863;SDS011;31579;52.354;16.974;2023-01-29T07:03:02;24.30;;;11.20;;
45863;SDS011;31579;52.354;16.974;2023-01-29T07:08:00;24.30;;;11.20;;
45863;SDS011;31579;52.354;16.974;2023-01-29T07:12:58;24.30;;;11.20;;
45863;SDS011;31579;52.354;16.974;2023-01-29T07:17:59;24.30;;;11.20;;
45863;SDS011;31579;52.354;16.974;2023-01-29T07:22:58;23.40;;;12.00;;
45863;SDS011;31579;52.354;16.974;2023-01-29T07:27:59;23.40;;;12.00;;
45863;SDS011;31579;52.354;16.974;2023-01-29T07:37:58;25.40;;;13.10;;
45863;SDS011;31579;52.354;16.974;2023-01-29T07:42:59;23.40;;;12.50;;
45863;SDS011;31579;52.354;16.974;2023-01-29T07:47:59;23.40;;;12.50;;
45863;SDS011;31579;52.354;16.974;2023-01-29T07:52:58;29.10;;;13.50;;
45863;SDS011;31579;52.354;16.974;2023-01-29T08:00:30;24.40;;;12.80;;
45863;SDS011;31579;52.354;16.974;2023-01-29T08:05:30;24.40;;;12.80;;
45863;SDS011;31579;52.354;16.974;2023-01-29T08:10:30;28.50;;;14.30;;
45863;SDS011;31579;52.354;16.974;2023-01-29T08:15:30;28.50;;;14.30;;
45863;SDS011;31579;52.354;16.974;2023-01-29T08:20:30;27.20;;;14.30;;
45863;SDS011;31579;52.354;16.974;2023-01-29T08:25:30;27.20;;;14.30;;
45863;SDS011;31579;52.354;16.974;2023-01-29T08:30:31;27.00;;;14.20;;
45863;SDS011;31579;52.354;16.974;2023-01-29T08:35:30;27.00;;;14.20;;
45863;SDS011;31579;52.354;16.974;2023-01-29T08:40:31;27.30;;;13.70;;
45863;SDS011;31579;52.354;16.974;2023-01-29T08:46:11;27.30;;;13.70;;
45863;SDS011;31579;52.354;16.974;2023-01-29T08:51:09;30.60;;;15.20;;
45863;SDS011;31579;52.354;16.974;2023-01-29T08:56:09;30.60;;;15.20;;
45863;SDS011;31579;52.354;16.974;2023-01-29T09:01:10;26.90;;;14.20;;
45863;SDS011;31579;52.354;16.974;2023-01-29T09:06:10;26.90;;;14.20;;
45863;SDS011;31579;52.354;16.974;2023-01-29T09:11:09;27.30;;;14.80;;
45863;SDS011;31579;52.354;16.974;2023-01-29T09:16:09;27.30;;;14.80;;
45863;SDS011;31579;52.354;16.974;2023-01-29T09:21:09;28.80;;;14.40;;
45863;SDS011;31579;52.354;16.974;2023-01-29T09:26:09;28.80;;;14.40;;
45863;SDS011;31579;52.354;16.974;2023-01-29T09:31:09;29.80;;;14.50;;
45863;SDS011;31579;52.354;16.974;2023-01-29T09:36:09;29.80;;;14.50;;
45863;SDS011;31579;52.354;16.974;2023-01-29T09:46:16;30.90;;;15.20;;
45863;SDS011;31579;52.354;16.974;2023-01-29T09:56:13;36.40;;;17.00;;
45863;SDS011;31579;52.354;16.974;2023-01-29T10:20:28;28.50;;;16.30;;
45863;SDS011;31579;52.354;16.974;2023-01-29T10:25:15;28.50;;;16.30;;
45863;SDS011;31579;52.354;16.974;2023-01-29T10:30:38;35.00;;;18.60;;
45863;SDS011;31579;52.354;16.974;2023-01-29T11:02:17;32.50;;;16.10;;
45863;SDS011;31579;52.354;16.974;2023-01-29T11:07:16;32.50;;;16.10;;
45863;SDS011;31579;52.354;16.974;2023-01-29T11:12:19;35.10;;;17.70;;
45863;SDS011;31579;52.354;16.974;2023-01-29T11:17:16;35.10;;;17.70;;
45863;SDS011;31579;52.354;16.974;2023-01-29T11:22:18;35.70;;;18.00;;
45863;SDS011;31579;52.354;16.974;2023-01-29T11:37:16;37.30;;;18.80;;
45863;SDS011;31579;52.354;16.974;2023-01-29T11:42:20;38.90;;;19.60;;
45863;SDS011;31579;52.354;16.974;2023-01-29T11:47:19;38.90;;;19.60;;
45863;SDS011;31579;52.354;16.974;2023-01-29T11:51:54;41.30;;;19.80;;
45863;SDS011;31579;52.354;16.974;2023-01-29T11:56:52;41.30;;;19.80;;
45863;SDS011;31579;52.354;16.974;2023-01-29T12:01:52;38.90;;;19.80;;
45863;SDS011;31579;52.354;16.974;2023-01-29T12:06:52;38.90;;;19.80;;
45863;SDS011;31579;52.354;16.974;2023-01-29T12:11:52;40.20;;;20.30;;
45863;SDS011;31579;52.354;16.974;2023-01-29T12:39:13;55.30;;;25.80;;
45863;SDS011;31579;52.354;16.974;2023-01-29T12:44:24;55.30;;;25.80;;
45863;SDS011;31579;52.354;16.974;2023-01-29T12:49:17;51.00;;;25.30;;
45863;SDS011;31579;52.354;16.974;2023-01-29T12:54:16;51.00;;;25.30;;
45863;SDS011;31579;52.354;16.974;2023-01-29T13:09:16;55.30;;;25.80;;
45863;SDS011;31579;52.354;16.974;2023-01-29T13:24:14;46.70;;;23.90;;
45863;SDS011;31579;52.354;16.974;2023-01-29T13:34:14;47.40;;;24.00;;
45863;SDS011;31579;52.354;16.974;2023-01-29T13:49:21;46.20;;;23.60;;
45863;SDS011;31579;52.354;16.974;2023-01-29T13:54:15;46.20;;;23.60;;
45863;SDS011;31579;52.354;16.974;2023-01-29T14:19:16;47.70;;;23.30;;
45863;SDS011;31579;52.354;16.974;2023-01-29T14:30:06;42.90;;;21.90;;
45863;SDS011;31579;52.354;16.974;2023-01-29T14:35:29;42.90;;;21.90;;
45863;SDS011;31579;52.354;16.974;2023-01-29T14:45:23;49.80;;;23.90;;
45863;SDS011;31579;52.354;16.974;2023-01-29T14:55:07;50.00;;;24.90;;
45863;SDS011;31579;52.354;16.974;2023-01-29T15:00:05;55.80;;;27.60;;
45863;SDS011;31579;52.354;16.974;2023-01-29T15:05:08;55.80;;;27.60;;
45863;SDS011;31579;52.354;16.974;2023-01-29T15:29:05;48.80;;;22.10;;
45863;SDS011;31579;52.354;16.974;2023-01-29T15:34:05;48.80;;;22.10;;
45863;SDS011;31579;52.354;16.974;2023-01-29T15:44:27;49.80;;;23.40;;
45863;SDS011;31579;52.354;16.974;2023-01-29T15:54:28;52.80;;;25.50;;
45863;SDS011;31579;52.354;16.974;2023-01-29T15:59:28;55.10;;;27.70;;
45863;SDS011;31579;52.354;16.974;2023-01-29T16:04:26;55.10;;;27.70;;
45863;SDS011;31579;52.354;16.974;2023-01-29T16:09:26;53.50;;;25.60;;
45863;SDS011;31579;52.354;16.974;2023-01-29T16:14:26;53.50;;;25.60;;
45863;SDS011;31579;52.354;16.974;2023-01-29T16:19:27;47.20;;;23.20;;
45863;SDS011;31579;52.354;16.974;2023-01-29T16:24:26;47.20;;;23.20;;
45863;SDS011;31579;52.354;16.974;2023-01-29T16:39:27;45.80;;;23.40;;
45863;SDS011;31579;52.354;16.974;2023-01-29T16:54:26;48.40;;;23.60;;
45863;SDS011;31579;52.354;16.974;2023-01-29T17:04:28;43.40;;;21.80;;
45863;SDS011;31579;52.354;16.974;2023-01-29T17:09:27;51.20;;;24.50;;
45863;SDS011;31579;52.354;16.974;2023-01-29T17:14:26;51.20;;;24.50;;
45863;SDS011;31579;52.354;16.974;2023-01-29T17:19:26;53.40;;;25.00;;
45863;SDS011;31579;52.354;16.974;2023-01-29T17:24:27;53.40;;;25.00;;
45863;SDS011;31579;52.354;16.974;2023-01-29T17:29:27;53.90;;;25.10;;
45863;SDS011;31579;52.354;16.974;2023-01-29T17:34:26;53.90;;;25.10;;
45863;SDS011;31579;52.354;16.974;2023-01-29T17:44:14;43.80;;;23.30;;
45863;SDS011;31579;52.354;16.974;2023-01-29T17:54:14;46.40;;;23.00;;
45863;SDS011;31579;52.354;16.974;2023-01-29T17:59:15;44.30;;;21.20;;
45863;SDS011;31579;52.354;16.974;2023-01-29T18:04:14;44.30;;;21.20;;
45863;SDS011;31579;52.354;16.974;2023-01-29T18:06:51;47.00;;;21.60;;
45863;SDS011;31579;52.354;16.974;2023-01-29T18:11:49;47.00;;;21.60;;
45863;SDS011;31579;52.354;16.974;2023-01-29T18:16:49;47.00;;;21.60;;
45863;SDS011;31579;52.354;16.974;2023-01-29T18:21:49;43.50;;;21.60;;
45863;SDS011;31579;52.354;16.974;2023-01-29T18:26:49;43.50;;;21.60;;
45863;SDS011;31579;52.354;16.974;2023-01-29T18:35:04;45.20;;;21.60;;
45863;SDS011;31579;52.354;16.974;2023-01-29T18:40:04;44.40;;;21.10;;
45863;SDS011;31579;52.354;16.974;2023-01-29T18:45:05;44.40;;;21.10;;
45863;SDS011;31579;52.354;16.974;2023-01-29T18:50:04;42.10;;;20.70;;
45863;SDS011;31579;52.354;16.974;2023-01-29T18:55:04;42.10;;;20.70;;
45863;SDS011;31579;52.354;16.974;2023-01-29T19:00:04;42.90;;;20.30;;
45863;SDS011;31579;52.354;16.974;2023-01-29T19:05:04;42.90;;;20.30;;
45863;SDS011;31579;52.354;16.974;2023-01-29T19:10:05;40.60;;;19.30;;
45863;SDS011;31579;52.354;16.974;2023-01-29T19:15:05;40.60;;;19.30;;
45863;SDS011;31579;52.354;16.974;2023-01-29T19:20:04;39.90;;;19.00;;
45863;SDS011;31579;52.354;16.974;2023-01-29T19:25:04;39.90;;;19.00;;
45863;SDS011;31579;52.354;16.974;2023-01-29T19:30:04;35.40;;;18.30;;
45863;SDS011;31579;52.354;16.974;2023-01-29T19:35:04;35.40;;;18.30;;
45863;SDS011;31579;52.354;16.974;2023-01-29T19:40:04;40.00;;;19.70;;
45863;SDS011;31579;52.354;16.974;2023-01-29T19:45:04;40.00;;;19.70;;
45863;SDS011;31579;52.354;16.974;2023-01-29T19:50:05;39.00;;;19.20;;
45863;SDS011;31579;52.354;16.974;2023-01-29T19:55:05;39.00;;;19.20;;
45863;SDS011;31579;52.354;16.974;2023-01-29T20:00:05;38.90;;;18.50;;
45863;SDS011;31579;52.354;16.974;2023-01-29T20:05:04;38.90;;;18.50;;
45863;SDS011;31579;52.354;16.974;2023-01-29T20:10:09;41.80;;;20.00;;
45863;SDS011;31579;52.354;16.974;2023-01-29T20:15:04;41.80;;;20.00;;
45863;SDS011;31579;52.354;16.974;2023-01-29T20:20:04;36.70;;;17.90;;
45863;SDS011;31579;52.354;16.974;2023-01-29T20:25:04;36.70;;;17.90;;
45863;SDS011;31579;52.354;16.974;2023-01-29T20:30:06;36.50;;;18.50;;
45863;SDS011;31579;52.354;16.974;2023-01-29T20:35:04;36.50;;;18.50;;
45863;SDS011;31579;52.354;16.974;2023-01-29T20:40:04;37.70;;;18.50;;
45863;SDS011;31579;52.354;16.974;2023-01-29T20:45:04;37.70;;;18.50;;
45863;SDS011;31579;52.354;16.974;2023-01-29T20:50:08;38.90;;;18.70;;
45863;SDS011;31579;52.354;16.974;2023-01-29T20:55:05;38.90;;;18.70;;
45863;SDS011;31579;52.354;16.974;2023-01-29T21:00:05;33.60;;;16.70;;
45863;SDS011;31579;52.354;16.974;2023-01-29T21:05:04;33.60;;;16.70;;
45863;SDS011;31579;52.354;16.974;2023-01-29T21:10:07;33.50;;;15.90;;
45863;SDS011;31579;52.354;16.974;2023-01-29T21:15:04;33.50;;;15.90;;
45863;SDS011;31579;52.354;16.974;2023-01-29T21:20:04;34.90;;;15.30;;
45863;SDS011;31579;52.354;16.974;2023-01-29T21:25:35;34.90;;;15.30;;
45863;SDS011;31579;52.354;16.974;2023-01-29T21:30:35;31.50;;;15.70;;
45863;SDS011;31579;52.354;16.974;2023-01-29T21:35:35;31.50;;;15.70;;
45863;SDS011;31579;52.354;16.974;2023-01-29T21:40:35;31.20;;;15.20;;
45863;SDS011;31579;52.354;16.974;2023-01-29T21:45:36;31.20;;;15.20;;
45863;SDS011;31579;52.354;16.974;2023-01-29T21:50:45;30.30;;;14.50;;
45863;SDS011;31579;52.354;16.974;2023-01-29T21:55:44;30.30;;;14.50;;
45863;SDS011;31579;52.354;16.974;2023-01-29T22:00:44;31.60;;;14.60;;
45863;SDS011;31579;52.354;16.974;2023-01-29T22:05:44;31.60;;;14.60;;
45863;SDS011;31579;52.354;16.974;2023-01-29T22:10:44;25.90;;;13.90;;
45863;SDS011;31579;52.354;16.974;2023-01-29T22:15:44;25.90;;;13.90;;
45863;SDS011;31579;52.354;16.974;2023-01-29T22:20:44;29.70;;;14.80;;
45863;SDS011;31579;52.354;16.974;2023-01-29T22:25:44;29.70;;;14.80;;
45863;SDS011;31579;52.354;16.974;2023-01-29T22:30:44;26.50;;;13.70;;
45863;SDS011;31579;52.354;16.974;2023-01-29T22:36:50;26.80;;;13.20;;
45863;SDS011;31579;52.354;16.974;2023-01-29T22:41:50;26.80;;;13.20;;
45863;SDS011;31579;52.354;16.974;2023-01-29T22:46:50;26.50;;;13.70;;
45863;SDS011;31579;52.354;16.974;2023-01-29T22:51:50;26.50;;;13.70;;
45863;SDS011;31579;52.354;16.974;2023-01-29T22:55:05;26.50;;;13.70;;
45863;SDS011;31579;52.354;16.974;2023-01-29T23:00:07;31.80;;;14.00;;
45863;SDS011;31579;52.354;16.974;2023-01-29T23:05:02;31.80;;;14.00;;
45863;SDS011;31579;52.354;16.974;2023-01-29T23:10:02;25.90;;;13.10;;
45863;SDS011;31579;52.354;16.974;2023-01-29T23:15:02;25.90;;;13.10;;
45863;SDS011;31579;52.354;16.974;2023-01-29T23:25:11;26.50;;;13.30;;
45863;SDS011;31579;52.354;16.974;2023-01-29T23:30:11;25.00;;;13.40;;
45863;SDS011;31579;52.354;16.974;2023-01-29T23:35:11;25.00;;;13.40;;
45863;SDS011;31579;52.354;16.974;2023-01-29T23:40:11;25.60;;;12.20;;
45863;SDS011;31579;52.354;16.974;2023-01-29T23:45:11;25.60;;;12.20;;
45863;SDS011;31579;52.354;16.974;2023-01-29T23:50:11;23.40;;;12.40;;
45863;SDS011;31579;52.354;16.974;2023-01-29T23:55:11;23.40;;;12.40;;
